createdAt,value
2022-11-15T00:00:11.256Z,79.80
2022-11-15T00:05:36.190Z,76.80
2022-11-15T00:11:01.396Z,76.20
2022-11-15T00:16:22.518Z,78.00
2022-11-15T00:21:43.231Z,92.20
2022-11-15T00:27:07.870Z,87.50
2022-11-15T00:32:33.708Z,70.90
2022-11-15T00:37:54.099Z,94.80
2022-11-15T00:43:14.347Z,79.40
2022-11-15T00:48:35.224Z,77.00
2022-11-15T00:53:55.740Z,77.30
2022-11-15T00:59:16.660Z,82.10
2022-11-15T01:04:37.180Z,73.20
2022-11-15T01:09:57.361Z,84.10
2022-11-15T01:15:17.726Z,81.00
2022-11-15T01:20:44.617Z,81.70
2022-11-15T01:26:07.116Z,81.70
2022-11-15T01:31:27.741Z,89.80
2022-11-15T01:36:48.455Z,82.80
2022-11-15T01:42:14.511Z,88.90
2022-11-15T01:47:52.523Z,88.70
2022-11-15T01:53:13.709Z,125.40
2022-11-15T01:58:35.188Z,109.20
2022-11-15T02:04:00.823Z,88.60
2022-11-15T02:09:21.694Z,105.40
2022-11-15T02:14:45.544Z,96.70
2022-11-15T02:20:41.674Z,93.20
2022-11-15T02:26:30.364Z,110.80
2022-11-15T02:32:02.969Z,90.40
2022-11-15T02:37:43.750Z,97.60
2022-11-15T02:43:32.326Z,96.50
2022-11-15T02:48:53.550Z,84.20
2022-11-15T02:54:19.186Z,118.90
2022-11-15T03:00:04.892Z,164.20
2022-11-15T03:05:47.735Z,140.00
2022-11-15T03:11:10.189Z,98.20
2022-11-15T03:16:54.457Z,71.70
2022-11-15T03:22:25.622Z,79.90
2022-11-15T03:27:51.815Z,73.60
2022-11-15T03:33:12.798Z,88.50
2022-11-15T03:38:36.258Z,173.20
2022-11-15T03:44:12.267Z,65.10
2022-11-15T03:49:36.152Z,74.60
2022-11-15T03:54:58.184Z,141.80
2022-11-15T04:00:18.824Z,159.00
2022-11-15T04:05:39.228Z,138.80
2022-11-15T04:11:02.264Z,138.80
2022-11-15T04:16:23.220Z,61.90
2022-11-15T04:22:02.583Z,60.10
2022-11-15T04:27:23.187Z,71.30
2022-11-15T04:32:43.509Z,72.60
2022-11-15T04:38:06.275Z,63.30
2022-11-15T04:43:26.687Z,67.80
2022-11-15T04:48:47.538Z,62.40
2022-11-15T04:54:08.128Z,71.30
2022-11-15T04:59:28.739Z,65.50
2022-11-15T05:04:49.769Z,81.60
2022-11-15T05:10:10.769Z,85.50
2022-11-15T05:15:31.404Z,93.70
2022-11-15T05:20:51.558Z,85.30
2022-11-15T05:26:12.762Z,67.30
2022-11-15T05:31:33.259Z,59.30
2022-11-15T05:36:54.741Z,48.30
2022-11-15T05:42:16.850Z,49.60
2022-11-15T05:47:39.515Z,59.40
2022-11-15T05:53:05.177Z,106.00
2022-11-15T05:58:26.363Z,98.80
2022-11-15T06:03:46.690Z,96.50
2022-11-15T06:09:07.202Z,71.20
2022-11-15T06:14:37.371Z,83.00
2022-11-15T06:19:57.654Z,80.90
2022-11-15T06:25:18.164Z,75.70
2022-11-15T06:30:38.575Z,71.30
2022-11-15T06:36:08.622Z,60.10
2022-11-15T06:41:39.675Z,49.00
2022-11-15T06:47:00.396Z,48.40
2022-11-15T06:52:20.904Z,51.60
2022-11-15T06:57:52.174Z,56.80
2022-11-15T07:03:12.382Z,66.30
2022-11-15T07:08:33.310Z,71.30
2022-11-15T07:13:54.064Z,72.60
2022-11-15T07:19:14.539Z,77.70
2022-11-15T07:24:34.954Z,62.90
2022-11-15T07:29:55.609Z,76.10
2022-11-15T07:35:16.184Z,83.20
2022-11-15T07:40:36.902Z,87.50
2022-11-15T07:45:59.287Z,93.50
2022-11-15T07:51:21.214Z,133.20
2022-11-15T07:56:42.647Z,125.60
2022-11-15T08:02:03.671Z,113.80
2022-11-15T08:07:24.672Z,103.30
2022-11-15T08:12:45.355Z,95.00
2022-11-15T08:18:12.831Z,92.40
2022-11-15T08:23:33.683Z,107.80
2022-11-15T08:28:54.343Z,95.50
2022-11-15T08:34:14.766Z,90.80
2022-11-15T08:39:35.156Z,90.10
2022-11-15T08:44:56.139Z,90.70
2022-11-15T08:50:17.003Z,84.30
2022-11-15T08:55:39.097Z,80.30
2022-11-15T09:00:59.827Z,70.20
2022-11-15T09:06:20.291Z,86.30
2022-11-15T09:11:41.316Z,69.00
2022-11-15T09:17:02.539Z,62.20
2022-11-15T09:22:23.418Z,66.50
2022-11-15T09:27:53.814Z,50.10
2022-11-15T09:33:14.531Z,47.60
2022-11-15T09:38:35.986Z,42.70
2022-11-15T09:44:05.355Z,44.50
2022-11-15T09:49:44.574Z,45.30
2022-11-15T09:54:55.499Z,42.50
2022-11-15T10:00:47.599Z,42.10
2022-11-15T10:05:49.774Z,38.10
2022-11-15T10:11:22.733Z,41.50
2022-11-15T10:16:29.676Z,45.60
2022-11-15T10:22:05.756Z,44.50
2022-11-15T10:27:14.352Z,45.90
2022-11-15T10:32:21.799Z,48.70
2022-11-15T10:37:31.734Z,40.90
2022-11-15T10:42:33.642Z,42.70
2022-11-15T10:47:39.562Z,40.80
2022-11-15T10:52:47.858Z,39.70
2022-11-15T10:57:53.611Z,38.40
2022-11-15T11:03:08.340Z,36.00
2022-11-15T11:08:12.928Z,38.50
2022-11-15T11:13:16.864Z,36.20
2022-11-15T11:18:43.813Z,38.10
2022-11-15T11:23:59.648Z,34.90
2022-11-15T11:29:25.235Z,40.30
2022-11-15T11:34:39.062Z,37.00
2022-11-15T11:39:48.468Z,34.50
2022-11-15T11:44:59.562Z,42.90
2022-11-15T11:50:11.903Z,39.80
2022-11-15T11:55:19.080Z,41.10
2022-11-15T12:00:30.388Z,42.70
2022-11-15T12:06:30.833Z,41.80
2022-11-15T12:12:10.366Z,40.40
2022-11-15T12:17:13.395Z,42.50
2022-11-15T12:22:24.083Z,42.70
2022-11-15T12:27:48.136Z,39.70
2022-11-15T12:33:00.141Z,39.60
2022-11-15T12:38:02.681Z,39.80
2022-11-15T12:43:16.749Z,44.30
2022-11-15T12:48:18.638Z,42.50
2022-11-15T12:53:26.364Z,43.60
2022-11-15T12:58:40.405Z,41.50
2022-11-15T13:04:19.985Z,40.20
2022-11-15T13:09:31.059Z,41.90
2022-11-15T13:14:40.539Z,43.20
2022-11-15T13:19:42.384Z,41.90
2022-11-15T13:24:44.265Z,47.20
2022-11-15T13:29:46.070Z,45.00
2022-11-15T13:34:51.940Z,48.10
2022-11-15T13:39:54.611Z,38.40
2022-11-15T13:44:59.204Z,45.50
2022-11-15T13:50:09.633Z,51.50
2022-11-15T13:55:20.766Z,47.20
2022-11-15T14:00:48.917Z,47.90
2022-11-15T14:06:16.097Z,45.80
2022-11-15T14:11:20.933Z,40.50
2022-11-15T14:16:43.778Z,37.70
2022-11-15T14:22:16.207Z,41.10
2022-11-15T14:27:27.083Z,48.80
2022-11-15T14:32:31.565Z,50.40
2022-11-15T14:37:38.520Z,50.70
2022-11-15T14:42:40.398Z,53.20
2022-11-15T14:47:42.792Z,55.60
2022-11-15T14:52:45.121Z,50.80
2022-11-15T14:57:47.569Z,51.90
2022-11-15T15:02:51.523Z,73.70
2022-11-15T15:07:54.476Z,72.70
2022-11-15T15:12:56.472Z,80.70
2022-11-15T15:17:58.276Z,69.30
2022-11-15T15:23:00.158Z,74.90
2022-11-15T15:28:03.234Z,71.30
2022-11-15T15:33:05.105Z,74.90
2022-11-15T15:38:07.086Z,73.70
2022-11-15T15:43:10.316Z,66.10
2022-11-15T15:48:14.552Z,72.60
2022-11-15T15:53:16.917Z,79.20
2022-11-15T15:58:18.689Z,68.20
2022-11-15T16:03:20.506Z,64.20
2022-11-15T16:08:25.029Z,68.00
2022-11-15T16:13:26.986Z,71.00
2022-11-15T16:18:35.679Z,62.20
2022-11-15T16:23:38.056Z,80.20
2022-11-15T16:28:39.812Z,80.90
2022-11-15T16:33:41.573Z,92.00
2022-11-15T16:38:43.375Z,124.30
2022-11-15T16:43:46.926Z,206.00
2022-11-15T16:48:49.462Z,218.10
2022-11-15T16:53:51.528Z,163.90
2022-11-15T16:59:00.627Z,135.90
2022-11-15T17:04:16.578Z,149.50
2022-11-15T17:09:24.724Z,127.00
2022-11-15T17:14:26.683Z,164.10
2022-11-15T17:19:28.564Z,155.50
2022-11-15T17:24:30.439Z,210.30
2022-11-15T17:29:32.319Z,202.10
2022-11-15T17:34:34.194Z,182.40
2022-11-15T17:39:35.999Z,150.30
2022-11-15T17:44:37.949Z,124.50
2022-11-15T17:49:40.952Z,98.90
2022-11-15T17:54:42.828Z,92.60
2022-11-15T17:59:44.588Z,98.60
2022-11-15T18:04:46.481Z,108.40
2022-11-15T18:09:48.260Z,119.00
2022-11-15T18:14:50.077Z,146.20
2022-11-15T18:19:51.910Z,116.30
2022-11-15T18:24:53.781Z,102.60
2022-11-15T18:29:55.626Z,122.40
2022-11-15T18:34:57.395Z,97.90
2022-11-15T18:39:59.211Z,99.20
2022-11-15T18:45:02.014Z,201.00
2022-11-15T18:50:04.019Z,230.50
2022-11-15T18:55:05.899Z,164.60
2022-11-15T19:00:09.231Z,119.00
2022-11-15T19:05:11.004Z,100.00
2022-11-15T19:10:12.968Z,130.40
2022-11-15T19:15:14.921Z,170.90
2022-11-15T19:20:16.786Z,179.40
2022-11-15T19:25:19.031Z,179.40
2022-11-15T19:30:20.930Z,114.40
2022-11-15T19:35:22.784Z,100.10
2022-11-15T19:40:24.620Z,95.40
2022-11-15T19:45:26.441Z,93.90
2022-11-15T19:50:28.240Z,128.10
2022-11-15T19:55:30.184Z,119.80
2022-11-15T20:00:32.117Z,99.00
2022-11-15T20:05:33.946Z,97.10
2022-11-15T20:10:35.972Z,108.30
2022-11-15T20:15:37.796Z,127.00
2022-11-15T20:20:40.175Z,121.40
2022-11-15T20:25:47.067Z,163.10
2022-11-15T20:30:52.729Z,127.90
2022-11-15T20:35:54.881Z,145.80
2022-11-15T20:41:00.130Z,143.80
2022-11-15T20:46:02.619Z,129.80
2022-11-15T20:51:16.262Z,111.20
2022-11-15T20:56:20.198Z,160.60
2022-11-15T21:01:24.611Z,170.70
2022-11-15T21:06:27.651Z,154.10
2022-11-15T21:11:48.320Z,105.60
2022-11-15T21:16:50.607Z,118.70
2022-11-15T21:21:52.468Z,147.20
2022-11-15T21:26:54.773Z,143.50
2022-11-15T21:31:56.778Z,127.10
2022-11-15T21:36:59.039Z,127.40
2022-11-15T21:42:00.899Z,124.80
2022-11-15T21:52:28.027Z,139.00
2022-11-15T21:57:30.340Z,133.50
2022-11-15T22:02:32.239Z,133.60
2022-11-15T22:07:34.100Z,144.60
2022-11-15T22:12:40.605Z,121.60
2022-11-15T22:18:00.680Z,117.50
2022-11-15T22:23:02.913Z,119.50
2022-11-15T22:28:04.917Z,110.30
2022-11-15T22:33:07.015Z,123.50
2022-11-15T22:38:09.570Z,127.80
2022-11-15T22:43:13.573Z,126.60
2022-11-15T22:48:16.605Z,134.70
2022-11-15T22:53:19.421Z,134.10
2022-11-15T22:58:23.629Z,111.30
2022-11-15T23:03:27.103Z,124.10
2022-11-15T23:08:29.098Z,124.30
2022-11-15T23:13:33.052Z,121.20
2022-11-15T23:18:40.992Z,109.30
2022-11-15T23:23:42.878Z,101.70
2022-11-15T23:28:44.755Z,99.70
2022-11-15T23:33:58.890Z,87.30
2022-11-15T23:39:02.225Z,93.90
2022-11-15T23:44:04.665Z,97.70
2022-11-15T23:49:06.674Z,93.60
2022-11-15T23:54:09.140Z,101.70
2022-11-15T23:59:11.102Z,103.60
